createdAt,value
2022-10-20T00:02:46.202Z,8.75
2022-10-20T00:07:47.730Z,8.40
2022-10-20T00:12:49.174Z,7.68
2022-10-20T00:17:50.580Z,9.23
2022-10-20T00:22:52.042Z,8.07
2022-10-20T00:27:53.513Z,6.82
2022-10-20T00:32:54.928Z,7.65
2022-10-20T00:37:57.415Z,7.20
2022-10-20T00:42:58.851Z,6.70
2022-10-20T00:48:08.623Z,6.95
2022-10-20T00:53:11.047Z,8.00
2022-10-20T00:58:12.767Z,7.28
2022-10-20T01:03:23.816Z,7.20
2022-10-20T01:08:25.425Z,7.25
2022-10-20T01:13:43.532Z,6.47
2022-10-20T01:19:17.742Z,5.95
2022-10-20T01:24:56.925Z,6.53
2022-10-20T01:30:07.252Z,5.07
2022-10-20T01:35:18.808Z,5.07
2022-10-20T01:40:32.012Z,7.20
2022-10-20T01:45:36.919Z,6.30
2022-10-20T01:50:40.416Z,9.55
2022-10-20T01:55:42.288Z,9.13
2022-10-20T02:00:45.150Z,9.13
2022-10-20T02:06:30.445Z,7.53
2022-10-20T02:11:46.044Z,7.50
2022-10-20T02:16:51.609Z,6.57
2022-10-20T02:21:55.270Z,7.78
2022-10-20T02:27:01.679Z,7.15
2022-10-20T02:32:03.175Z,6.35
2022-10-20T02:37:04.676Z,6.22
2022-10-20T02:42:06.272Z,6.60
2022-10-20T02:47:07.679Z,6.15
2022-10-20T02:52:09.089Z,6.95
2022-10-20T02:57:10.567Z,7.72
2022-10-20T03:02:12.007Z,7.38
2022-10-20T03:07:14.383Z,6.78
2022-10-20T03:12:16.036Z,8.70
2022-10-20T03:17:17.452Z,7.72
2022-10-20T03:22:18.888Z,7.30
2022-10-20T03:27:20.415Z,8.00
2022-10-20T03:32:21.830Z,7.72
2022-10-20T03:37:23.373Z,7.82
2022-10-20T03:42:24.807Z,7.03
2022-10-20T03:47:26.267Z,9.52
2022-10-20T03:52:27.941Z,9.02
2022-10-20T03:57:29.400Z,8.77
2022-10-20T04:02:36.247Z,11.68
2022-10-20T04:07:37.829Z,9.20
2022-10-20T04:12:39.686Z,9.35
2022-10-20T04:17:41.224Z,8.95
2022-10-20T04:22:42.745Z,7.30
2022-10-20T04:27:44.371Z,7.63
2022-10-20T04:32:45.863Z,7.60
2022-10-20T04:37:47.275Z,7.38
2022-10-20T04:42:48.723Z,8.23
2022-10-20T04:47:50.151Z,7.38
2022-10-20T04:52:51.608Z,8.02
2022-10-20T04:57:53.078Z,7.82
2022-10-20T05:02:55.331Z,7.95
2022-10-20T05:07:56.754Z,8.13
2022-10-20T05:12:58.280Z,8.65
2022-10-20T05:17:59.716Z,9.27
2022-10-20T05:23:01.145Z,10.45
2022-10-20T05:28:02.724Z,8.05
2022-10-20T05:33:05.009Z,7.97
2022-10-20T05:38:06.474Z,7.30
2022-10-20T05:43:07.876Z,7.90
2022-10-20T05:48:09.315Z,6.03
2022-10-20T05:53:10.765Z,7.25
2022-10-20T05:58:12.292Z,8.63
2022-10-20T06:03:16.155Z,8.13
2022-10-20T06:08:20.642Z,8.40
2022-10-20T06:13:22.143Z,9.63
2022-10-20T06:18:23.583Z,10.35
2022-10-20T06:23:25.036Z,9.05
2022-10-20T06:28:26.565Z,8.60
2022-10-20T06:33:30.341Z,9.65
2022-10-20T06:38:31.865Z,13.50
2022-10-20T06:43:33.692Z,10.15
2022-10-20T06:48:35.854Z,11.02
2022-10-20T06:53:38.915Z,10.07
2022-10-20T06:58:44.476Z,7.88
2022-10-20T07:03:48.014Z,9.18
2022-10-20T07:08:51.090Z,9.15
2022-10-20T07:13:53.373Z,7.93
2022-10-20T07:18:55.644Z,9.05
2022-10-20T07:23:57.375Z,8.60
2022-10-20T07:29:01.099Z,7.15
2022-10-20T07:34:23.720Z,7.03
2022-10-20T07:39:28.163Z,8.82
2022-10-20T07:44:29.680Z,7.70
2022-10-20T07:49:46.639Z,8.02
2022-10-20T07:54:48.161Z,6.30
2022-10-20T07:59:49.677Z,7.88
2022-10-20T08:04:51.335Z,7.57
2022-10-20T08:09:53.465Z,7.65
2022-10-20T08:15:20.583Z,8.20
2022-10-20T08:20:24.882Z,7.63
2022-10-20T08:25:29.904Z,6.72
2022-10-20T08:30:31.538Z,7.47
2022-10-20T08:35:33.659Z,6.50
2022-10-20T08:40:38.995Z,7.72
2022-10-20T08:45:40.602Z,8.30
2022-10-20T08:50:48.074Z,8.45
2022-10-20T08:55:50.338Z,7.88
2022-10-20T09:00:59.960Z,9.23
2022-10-20T09:06:15.310Z,9.30
2022-10-20T09:11:21.514Z,13.18
2022-10-20T09:16:42.068Z,13.23
2022-10-20T09:21:54.855Z,11.38
2022-10-20T09:26:59.516Z,14.35
2022-10-20T09:32:27.240Z,12.10
2022-10-20T09:37:25.243Z,11.98
2022-10-20T09:42:59.200Z,12.90
2022-10-20T09:48:17.094Z,11.55
2022-10-20T09:53:33.718Z,12.98
2022-10-20T09:58:39.922Z,12.38
2022-10-20T10:03:51.894Z,12.30
2022-10-20T10:08:54.411Z,12.07
2022-10-20T10:13:56.091Z,12.43
2022-10-20T10:19:04.154Z,11.80
2022-10-20T10:24:06.208Z,10.88
2022-10-20T10:29:23.901Z,10.73
2022-10-20T10:35:03.531Z,9.98
2022-10-20T10:40:18.032Z,9.13
2022-10-20T10:45:38.481Z,8.68
2022-10-20T10:51:07.199Z,13.60
2022-10-20T10:56:11.800Z,13.38
2022-10-20T11:01:19.857Z,10.40
2022-10-20T11:06:45.097Z,9.90
2022-10-20T11:12:08.696Z,9.73
2022-10-20T11:17:11.119Z,9.50
2022-10-20T11:22:33.197Z,11.00
2022-10-20T11:27:38.006Z,11.13
2022-10-20T11:32:46.060Z,9.18
2022-10-20T11:38:15.930Z,9.05
2022-10-20T11:43:46.837Z,9.50
2022-10-20T11:48:52.513Z,8.57
2022-10-20T11:54:00.258Z,9.07
2022-10-20T11:59:28.353Z,8.85
2022-10-20T12:04:45.371Z,10.27
2022-10-20T12:10:08.761Z,9.43
2022-10-20T12:15:25.539Z,9.57
2022-10-20T12:20:27.319Z,8.00
2022-10-20T12:25:41.238Z,8.60
2022-10-20T12:30:44.465Z,9.48
2022-10-20T12:35:59.852Z,8.25
2022-10-20T12:41:02.593Z,8.88
2022-10-20T12:46:11.757Z,9.23
2022-10-20T12:51:24.840Z,10.18
2022-10-20T12:56:32.014Z,8.27
2022-10-20T13:02:08.853Z,8.25
2022-10-20T13:07:11.411Z,7.38
2022-10-20T13:12:28.964Z,7.15
2022-10-20T13:17:51.189Z,6.55
2022-10-20T13:22:57.056Z,6.38
2022-10-20T13:28:18.294Z,6.65
2022-10-20T13:33:51.501Z,6.07
2022-10-20T13:39:02.630Z,6.03
2022-10-20T13:44:31.205Z,5.38
2022-10-20T13:49:52.980Z,5.35
2022-10-20T13:54:56.575Z,6.32
2022-10-20T14:00:01.138Z,6.30
2022-10-20T14:05:10.579Z,6.22
2022-10-20T14:10:39.509Z,6.30
2022-10-20T14:15:47.164Z,6.63
2022-10-20T14:21:02.818Z,7.20
2022-10-20T14:26:15.426Z,8.07
2022-10-20T14:31:21.277Z,8.25
2022-10-20T14:36:24.302Z,7.80
2022-10-20T14:41:30.362Z,8.55
2022-10-20T14:46:37.934Z,7.88
2022-10-20T14:51:45.136Z,8.18
2022-10-20T14:56:52.262Z,8.30
2022-10-20T15:02:01.580Z,7.65
2022-10-20T15:07:15.984Z,7.32
2022-10-20T15:12:38.688Z,7.00
2022-10-20T15:17:44.275Z,6.90
2022-10-20T15:22:46.506Z,6.22
2022-10-20T15:27:48.742Z,7.20
2022-10-20T15:32:50.788Z,6.35
2022-10-20T15:37:53.733Z,6.95
2022-10-20T15:42:55.263Z,6.68
2022-10-20T15:47:56.816Z,6.15
2022-10-20T15:52:58.474Z,8.60
2022-10-20T15:58:02.948Z,7.45
2022-10-20T16:03:05.370Z,6.63
2022-10-20T16:08:06.864Z,8.20
2022-10-20T16:13:08.860Z,8.88
2022-10-20T16:18:10.930Z,8.38
2022-10-20T16:23:12.460Z,7.50
2022-10-20T16:28:13.894Z,7.38
2022-10-20T16:33:15.415Z,7.47
2022-10-20T16:38:16.870Z,6.45
2022-10-20T16:43:18.308Z,7.45
2022-10-20T16:48:20.360Z,12.02
2022-10-20T16:53:23.662Z,10.98
2022-10-20T16:58:25.128Z,12.38
2022-10-20T17:03:26.621Z,11.23
2022-10-20T17:08:30.466Z,16.17
2022-10-20T17:13:33.033Z,14.70
2022-10-20T17:18:34.891Z,10.68
2022-10-20T17:23:41.802Z,11.00
2022-10-20T17:28:44.816Z,12.25
2022-10-20T17:33:46.909Z,13.18
2022-10-20T17:38:48.340Z,15.02
2022-10-20T17:43:50.222Z,11.32
2022-10-20T17:48:51.739Z,9.80
2022-10-20T17:53:55.908Z,9.95
2022-10-20T17:58:59.343Z,15.68
2022-10-20T18:04:04.057Z,10.85
2022-10-20T18:09:10.977Z,9.52
2022-10-20T18:14:12.628Z,8.30
2022-10-20T18:19:18.246Z,7.80
2022-10-20T18:24:20.299Z,7.82
2022-10-20T18:29:22.076Z,8.98
2022-10-20T18:34:23.711Z,9.43
2022-10-20T18:39:25.264Z,10.00
2022-10-20T18:49:34.152Z,7.13
2022-10-20T18:54:35.667Z,7.40
2022-10-20T18:59:37.163Z,7.10
2022-10-20T19:04:38.679Z,8.38
2022-10-20T19:09:40.643Z,8.55
2022-10-20T19:14:42.082Z,8.30
2022-10-20T19:19:44.639Z,7.72
2022-10-20T19:24:46.266Z,7.13
2022-10-20T19:29:47.750Z,6.93
2022-10-20T19:34:49.195Z,6.13
2022-10-20T19:39:50.667Z,6.68
2022-10-20T19:44:52.190Z,6.53
2022-10-20T19:49:54.035Z,9.35
2022-10-20T19:54:55.480Z,9.15
2022-10-20T19:59:56.928Z,7.43
2022-10-20T20:04:58.363Z,7.20
2022-10-20T20:10:00.026Z,6.55
2022-10-20T20:15:01.731Z,6.65
2022-10-20T20:20:03.784Z,6.22
2022-10-20T20:25:05.640Z,5.38
2022-10-20T20:30:07.596Z,5.63
2022-10-20T20:35:09.457Z,7.85
2022-10-20T20:40:11.206Z,7.05
2022-10-20T20:45:13.687Z,6.35
2022-10-20T20:50:15.262Z,8.48
2022-10-20T20:55:16.775Z,9.43
2022-10-20T21:00:18.546Z,7.50
2022-10-20T21:05:20.022Z,13.35
2022-10-20T21:10:21.459Z,9.70
2022-10-20T21:15:22.868Z,11.88
2022-10-20T21:20:24.334Z,7.95
2022-10-20T21:25:25.830Z,7.53
2022-10-20T21:30:27.369Z,7.18
2022-10-20T21:35:29.980Z,7.07
2022-10-20T21:40:31.701Z,7.63
2022-10-20T21:45:33.194Z,7.53
2022-10-20T21:50:36.563Z,7.05
2022-10-20T21:55:37.983Z,8.50
2022-10-20T22:00:39.519Z,8.00
2022-10-20T22:05:41.077Z,6.43
2022-10-20T22:10:42.552Z,6.43
2022-10-20T22:15:44.178Z,5.82
2022-10-20T22:20:45.640Z,6.43
2022-10-20T22:25:47.110Z,6.22
2022-10-20T22:30:48.605Z,6.10
2022-10-20T22:35:50.134Z,5.97
2022-10-20T22:40:51.558Z,5.32
2022-10-20T22:45:53.098Z,5.63
2022-10-20T22:50:54.649Z,6.60
2022-10-20T22:55:57.586Z,6.88
2022-10-20T23:00:59.129Z,5.78
2022-10-20T23:06:00.851Z,6.28
2022-10-20T23:11:02.261Z,6.95
2022-10-20T23:16:04.167Z,6.97
2022-10-20T23:27:28.107Z,6.30
2022-10-20T23:32:29.723Z,6.32
2022-10-20T23:37:31.266Z,7.82
2022-10-20T23:42:32.696Z,8.02
2022-10-20T23:47:34.114Z,6.30
2022-10-20T23:52:35.562Z,7.82
2022-10-20T23:57:37.200Z,7.97
